Time;durP1;ratioP1;P1;durP2;ratioP2;P2;SDS_P1;SDS_P2;PMS_P1;PMS_P2;Temp;Humidity;BMP_temperature;BMP_pressure;BME280_temperature;BME280_humidity;BME280_pressure;Samples;Min_cycle;Max_cycle;Signal;HPM_P1;HPM_P2
2022/03/31 00:01:16;;;;;;;;;;;;;;;;;;5011809;28;19921;-59
2022/03/31 00:03:43;;;;;;;;;;;;;;;;;;5017252;28;19931;-59
2022/03/31 00:06:11;;;;;;;;;;;;;;;;;;5020850;28;20212;-58
2022/03/31 00:08:37;;;;;;;;;;;;;;;;;;5015696;28;21897;-58
2022/03/31 00:11:03;;;;;;;;;;;;;;;;;;5017112;28;19921;-59
2022/03/31 00:13:28;;;;;;;;;;;;;;;;;;5013319;28;19931;-59
2022/03/31 00:15:57;;;;;;;;;;;;;;;;;;5003590;28;20579;-57
2022/03/31 00:18:23;;;;;;;;;;;;;;;;;;5008677;28;19982;-58
2022/03/31 00:20:48;;;;;;;;;;;;;;;;;;5013426;28;19920;-56
2022/03/31 00:23:13;;;;;;;;;;;;;;;;;;5015263;28;19920;-56
2022/03/31 00:25:42;;;;;;;;;;;;;;;;;;5016876;28;20706;-56
2022/03/31 00:28:07;;;;;;;;;;;;;;;;;;5012045;28;20556;-57
2022/03/31 00:30:35;;;;;;;;;;;;;;;;;;5013713;28;19921;-59
2022/03/31 00:33:00;;;;;;;;;;;;;;;;;;5014565;28;19929;-58
2022/03/31 00:35:25;;;;;;;;;;;;;;;;;;5014036;28;19920;-56
2022/03/31 00:37:51;;;;;;;;;;;;;;;;;;5014360;28;19924;-59
2022/03/31 00:40:17;;;;;;;;;;;;;;;;;;5013215;28;21659;-59
2022/03/31 00:42:42;;;;;;;;;;;;;;;;;;5014038;28;19925;-59
2022/03/31 00:45:08;;;;;;;;;;;;;;;;;;5011389;28;19924;-59
2022/03/31 00:47:34;;;;;;;;;;;;;;;;;;5015283;28;19959;-59
2022/03/31 00:49:59;;;;;;;;;;;;;;;;;;5017496;28;20392;-59
2022/03/31 00:52:27;;;;;;;;;;;;;;;;;;5030881;28;20781;-59
2022/03/31 00:54:52;;;;;;;;;;;;;;;;;;5015059;28;19927;-58
2022/03/31 00:57:17;;;;;;;;;;;;;;;;;;5014200;28;19921;-58
2022/03/31 00:59:43;;;;;;;;;;;;;;;;;;5013836;28;19964;-58
2022/03/31 01:02:08;;;;;;;;;;;;;;;;;;5015726;28;20031;-59
2022/03/31 01:04:34;;;;;;;;;;;;;;;;;;5013942;28;19925;-59
2022/03/31 01:07:02;;;;;;;;;;;;;;;;;;5016897;28;19935;-59
2022/03/31 01:09:27;;;;;;;;;;;;;;;;;;5016647;28;19917;-59
2022/03/31 01:11:53;;;;;;;;;;;;;;;;;;5016720;28;19991;-58
2022/03/31 01:14:20;;;;;;;;;;;;;;;;;;5016181;28;19921;-58
2022/03/31 01:16:47;;;;;;;;;;;;;;;;;;5014428;28;20455;-57
2022/03/31 01:19:12;;;;;;;;;;;;;;;;;;5012955;28;19928;-57
2022/03/31 01:21:40;;;;;;;;;;;;;;;;;;5016142;28;19931;-59
2022/03/31 01:24:06;;;;;;;;;;;;;;;;;;5014886;28;19916;-58
2022/03/31 01:26:32;;;;;;;;;;;;;;;;;;5014143;28;19921;-58
2022/03/31 01:29:05;;;;;;;;;;;;;;;;;;5013360;28;20418;-58
2022/03/31 01:31:30;;;;;;;;;;;;;;;;;;5027478;28;19917;-58
2022/03/31 01:33:56;;;;;;;;;;;;;;;;;;5006220;28;19921;-58
2022/03/31 01:36:21;;;;;;;;;;;;;;;;;;5029081;28;19921;-57
2022/03/31 01:38:46;;;;;;;;;;;;;;;;;;5012798;28;19924;-58
2022/03/31 01:41:14;;;;;;;;;;;;;;;;;;5003363;28;19932;-58
2022/03/31 01:43:40;;;;;;;;;;;;;;;;;;5016799;28;19921;-58
2022/03/31 01:46:08;;;;;;;;;;;;;;;;;;5016806;28;20265;-57
2022/03/31 01:48:35;;;;;;;;;;;;;;;;;;5017601;28;19920;-58
2022/03/31 01:51:04;;;;;;;;;;;;;;;;;;5015435;28;20135;-57
2022/03/31 01:53:29;;;;;;;;;;;;;;;;;;5016730;28;19959;-57
2022/03/31 01:55:57;;;;;;;;;;;;;;;;;;5020626;28;19921;-58
2022/03/31 01:58:22;;;;;;;;;;;;;;;;;;5015775;28;20024;-58
2022/03/31 02:00:52;;;;;;;;;;;;;;;;;;5006449;28;19921;-58
2022/03/31 02:03:20;;;;;;;;;;;;;;;;;;5015806;28;19920;-58
2022/03/31 02:05:48;;;;;;;;;;;;;;;;;;5016667;28;19933;-57
2022/03/31 02:08:13;;;;;;;;;;;;;;;;;;5017486;28;20616;-57
2022/03/31 02:10:41;;;;;;;;;;;;;;;;;;5015738;28;19921;-57
2022/03/31 02:13:08;;;;;;;;;;;;;;;;;;5004333;28;19951;-58
2022/03/31 02:15:34;;;;;;;;;;;;;;;;;;5021186;28;19928;-58
2022/03/31 02:18:02;;;;;;;;;;;;;;;;;;5015570;28;21055;-59
2022/03/31 02:20:28;;;;;;;;;;;;;;;;;;5011107;28;19921;-58
2022/03/31 02:22:55;;;;;;;;;;;;;;;;;;5019437;28;19924;-58
2022/03/31 02:25:23;;;;;;;;;;;;;;;;;;5014741;28;20018;-58
2022/03/31 02:27:48;;;;;;;;;;;;;;;;;;5006618;28;19921;-57
2022/03/31 02:30:14;;;;;;;;;;;;;;;;;;5016734;28;19950;-58
2022/03/31 02:32:41;;;;;;;;;;;;;;;;;;5015943;28;22888;-59
2022/03/31 02:35:06;;;;;;;;;;;;;;;;;;5024297;28;19921;-57
2022/03/31 02:37:31;;;;;;;;;;;;;;;;;;5014423;28;19960;-58
2022/03/31 02:39:57;;;;;;;;;;;;;;;;;;5022609;28;19921;-56
2022/03/31 02:42:23;;;;;;;;;;;;;;;;;;5022053;28;20452;-57
2022/03/31 02:44:56;;;;;;;;;;;;;;;;;;5015808;28;19921;-56
2022/03/31 02:47:21;;;;;;;;;;;;;;;;;;5018771;28;21156;-56
2022/03/31 02:49:47;;;;;;;;;;;;;;;;;;5015244;28;19921;-57
2022/03/31 02:52:12;;;;;;;;;;;;;;;;;;5015163;28;19957;-58
2022/03/31 02:57:24;;;;;;;;;;;;;;;;;;5014716;28;21922;-58
2022/03/31 02:59:50;;;;;;;;;;;;;;;;;;5021009;28;20677;-58
2022/03/31 03:02:20;;;;;;;;;;;;;;;;;;5015383;28;20054;-57
2022/03/31 03:04:47;;;;;;;;;;;;;;;;;;5014405;28;19970;-61
2022/03/31 03:07:15;;;;;;;;;;;;;;;;;;5017871;28;19925;-57
2022/03/31 03:09:43;;;;;;;;;;;;;;;;;;5016020;28;19941;-57
2022/03/31 03:12:12;;;;;;;;;;;;;;;;;;5016386;28;19928;-57
2022/03/31 03:14:40;;;;;;;;;;;;;;;;;;5015976;28;19967;-56
2022/03/31 03:17:06;;;;;;;;;;;;;;;;;;5012636;28;19925;-57
2022/03/31 03:19:31;;;;;;;;;;;;;;;;;;5019043;28;20566;-55
2022/03/31 03:21:57;;;;;;;;;;;;;;;;;;5017968;28;19955;-57
2022/03/31 03:24:22;;;;;;;;;;;;;;;;;;5014888;28;19924;-58
2022/03/31 03:26:49;;;;;;;;;;;;;;;;;;5016390;28;19956;-58
2022/03/31 03:29:17;;;;;;;;;;;;;;;;;;5013394;28;19921;-58
2022/03/31 03:31:44;;;;;;;;;;;;;;;;;;5015209;28;19920;-59
2022/03/31 03:34:10;;;;;;;;;;;;;;;;;;5016163;28;19928;-57
2022/03/31 03:36:35;;;;;;;;;;;;;;;;;;5014247;28;19948;-58
2022/03/31 03:39:01;;;;;;;;;;;;;;;;;;5015759;28;20004;-58
2022/03/31 03:41:29;;;;;;;;;;;;;;;;;;5020101;28;19952;-57
2022/03/31 03:43:54;;;;;;;;;;;;;;;;;;5020508;28;20036;-57
2022/03/31 03:46:23;;;;;;;;;;;;;;;;;;5017885;28;19920;-58
2022/03/31 03:48:48;;;;;;;;;;;;;;;;;;5021741;28;19943;-58
2022/03/31 03:51:14;;;;;;;;;;;;;;;;;;5017698;28;19944;-57
2022/03/31 03:53:39;;;;;;;;;;;;;;;;;;5020080;28;22882;-58
2022/03/31 03:56:07;;;;;;;;;;;;;;;;;;5019557;28;20087;-58
2022/03/31 03:58:32;;;;;;;;;;;;;;;;;;5013741;28;19955;-57
2022/03/31 04:01:00;;;;;;;;;;;;;;;;;;5013768;28;19921;-56
2022/03/31 04:03:28;;;;;;;;;;;;;;;;;;5016846;28;19921;-58
2022/03/31 04:05:55;;;;;;;;;;;;;;;;;;5015980;28;19959;-58
2022/03/31 04:08:21;;;;;;;;;;;;;;;;;;5016366;28;19955;-57
2022/03/31 04:10:46;;;;;;;;;;;;;;;;;;5005118;28;20861;-57
2022/03/31 04:13:17;;;;;;;;;;;;;;;;;;5013826;28;20379;-57
2022/03/31 04:15:45;;;;;;;;;;;;;;;;;;5019443;28;21822;-58
2022/03/31 04:18:10;;;;;;;;;;;;;;;;;;5021117;28;19921;-59
2022/03/31 04:20:35;;;;;;;;;;;;;;;;;;5003343;28;19929;-58
2022/03/31 04:23:01;;;;;;;;;;;;;;;;;;5020415;28;19921;-58
2022/03/31 04:25:26;;;;;;;;;;;;;;;;;;5016935;28;19921;-57
2022/03/31 04:27:54;;;;;;;;;;;;;;;;;;5016333;28;19921;-58
2022/03/31 04:30:21;;;;;;;;;;;;;;;;;;5016016;28;20342;-60
2022/03/31 04:32:48;;;;;;;;;;;;;;;;;;5011675;28;19960;-60
2022/03/31 04:35:16;;;;;;;;;;;;;;;;;;5003796;28;19931;-58
2022/03/31 04:37:41;;;;;;;;;;;;;;;;;;5014045;28;19924;-60
2022/03/31 04:40:10;;;;;;;;;;;;;;;;;;5011770;28;19982;-59
2022/03/31 04:42:40;;;;;;;;;;;;;;;;;;5011112;28;19921;-60
2022/03/31 04:45:06;;;;;;;;;;;;;;;;;;5012495;28;20553;-60
2022/03/31 04:47:31;;;;;;;;;;;;;;;;;;5019826;28;19921;-59
2022/03/31 04:49:59;;;;;;;;;;;;;;;;;;5019787;28;21852;-58
2022/03/31 04:52:24;;;;;;;;;;;;;;;;;;5013921;28;19963;-57
2022/03/31 04:54:52;;;;;;;;;;;;;;;;;;5017564;28;19917;-59
2022/03/31 04:57:18;;;;;;;;;;;;;;;;;;5002690;28;19948;-58
2022/03/31 04:59:43;;;;;;;;;;;;;;;;;;5017958;28;19917;-58
2022/03/31 05:02:12;;;;;;;;;;;;;;;;;;5013276;28;19940;-58
2022/03/31 05:04:40;;;;;;;;;;;;;;;;;;5011942;28;19920;-59
2022/03/31 05:07:11;;;;;;;;;;;;;;;;;;5015070;28;20236;-58
2022/03/31 05:09:39;;;;;;;;;;;;;;;;;;5018320;28;19929;-58
2022/03/31 05:12:06;;;;;;;;;;;;;;;;;;5012400;28;20376;-58
2022/03/31 05:14:34;;;;;;;;;;;;;;;;;;5023789;28;19920;-58
2022/03/31 05:17:00;;;;;;;;;;;;;;;;;;5023843;28;19920;-59
2022/03/31 05:19:25;;;;;;;;;;;;;;;;;;5019228;28;19921;-58
2022/03/31 05:21:51;;;;;;;;;;;;;;;;;;5019714;28;19953;-58
2022/03/31 05:24:17;;;;;;;;;;;;;;;;;;5016994;28;19956;-59
2022/03/31 05:26:42;;;;;;;;;;;;;;;;;;5018789;28;19925;-59
2022/03/31 05:29:08;;;;;;;;;;;;;;;;;;5012791;28;20000;-59
2022/03/31 05:31:36;;;;;;;;;;;;;;;;;;5017609;28;19917;-56
2022/03/31 05:34:01;;;;;;;;;;;;;;;;;;5018496;28;19917;-59
2022/03/31 05:36:27;;;;;;;;;;;;;;;;;;5018176;28;21683;-58
2022/03/31 05:38:56;;;;;;;;;;;;;;;;;;5019384;28;20089;-59
2022/03/31 05:41:21;;;;;;;;;;;;;;;;;;5024645;28;20411;-59
2022/03/31 05:43:49;;;;;;;;;;;;;;;;;;5026620;28;20008;-59
2022/03/31 05:46:18;;;;;;;;;;;;;;;;;;5017876;28;20378;-59
2022/03/31 05:48:45;;;;;;;;;;;;;;;;;;5020264;28;19921;-58
2022/03/31 05:51:13;;;;;;;;;;;;;;;;;;5006798;28;19921;-59
2022/03/31 05:53:41;;;;;;;;;;;;;;;;;;5016978;28;19982;-59
2022/03/31 05:56:09;;;;;;;;;;;;;;;;;;5018897;28;19932;-58
2022/03/31 05:58:37;;;;;;;;;;;;;;;;;;5019911;28;19921;-59
2022/03/31 06:01:02;;;;;;;;;;;;;;;;;;5019180;28;19927;-59
2022/03/31 06:03:30;;;;;;;;;;;;;;;;;;5017083;28;19921;-59
2022/03/31 06:05:56;;;;;;;;;;;;;;;;;;5016460;28;20355;-58
2022/03/31 06:08:23;;;;;;;;;;;;;;;;;;5020019;28;20878;-58
2022/03/31 06:10:49;;;;;;;;;;;;;;;;;;5016341;28;19935;-58
2022/03/31 06:13:14;;;;;;;;;;;;;;;;;;5018491;28;19924;-58
2022/03/31 06:15:42;;;;;;;;;;;;;;;;;;5007498;28;19925;-58
2022/03/31 06:18:07;;;;;;;;;;;;;;;;;;5019371;28;20644;-58
2022/03/31 06:20:34;;;;;;;;;;;;;;;;;;5017961;28;20400;-57
2022/03/31 06:22:59;;;;;;;;;;;;;;;;;;5021458;28;20707;-58
2022/03/31 06:25:26;;;;;;;;;;;;;;;;;;5019629;28;19921;-58
2022/03/31 06:27:52;;;;;;;;;;;;;;;;;;5018041;28;19923;-59
2022/03/31 06:30:21;;;;;;;;;;;;;;;;;;5021871;28;19921;-59
2022/03/31 06:32:48;;;;;;;;;;;;;;;;;;5020469;28;20008;-58
2022/03/31 06:35:20;;;;;;;;;;;;;;;;;;5021760;28;19995;-59
2022/03/31 06:37:45;;;;;;;;;;;;;;;;;;5028531;28;19928;-59
2022/03/31 06:40:13;;;;;;;;;;;;;;;;;;5020924;28;19920;-59
2022/03/31 06:42:44;;;;;;;;;;;;;;;;;;5028095;28;19925;-58
2022/03/31 06:45:12;;;;;;;;;;;;;;;;;;5022610;28;20039;-58
2022/03/31 06:47:39;;;;;;;;;;;;;;;;;;5020957;28;19918;-58
2022/03/31 06:50:07;;;;;;;;;;;;;;;;;;5021588;28;19920;-58
2022/03/31 06:52:32;;;;;;;;;;;;;;;;;;5022099;28;20883;-59
2022/03/31 06:55:00;;;;;;;;;;;;;;;;;;5019676;28;20459;-58
2022/03/31 06:57:28;;;;;;;;;;;;;;;;;;5011715;28;19921;-58
2022/03/31 06:59:58;;;;;;;;;;;;;;;;;;5020692;28;19917;-58
2022/03/31 07:02:25;;;;;;;;;;;;;;;;;;5037012;28;20292;-59
2022/03/31 07:04:51;;;;;;;;;;;;;;;;;;5021872;28;20589;-58
2022/03/31 07:07:19;;;;;;;;;;;;;;;;;;5027285;28;19932;-57
2022/03/31 07:09:48;;;;;;;;;;;;;;;;;;5021801;28;19949;-57
2022/03/31 07:12:16;;;;;;;;;;;;;;;;;;5021573;28;19957;-57
2022/03/31 07:14:41;;;;;;;;;;;;;;;;;;5018917;28;19925;-57
2022/03/31 07:17:07;;;;;;;;;;;;;;;;;;5022750;28;19936;-57
2022/03/31 07:19:37;;;;;;;;;;;;;;;;;;5028285;28;19921;-57
2022/03/31 07:22:07;;;;;;;;;;;;;;;;;;5020667;28;20381;-57
2022/03/31 07:24:33;;;;;;;;;;;;;;;;;;5020185;28;20012;-57
2022/03/31 07:27:03;;;;;;;;;;;;;;;;;;5020756;28;19962;-58
2022/03/31 07:29:30;;;;;;;;;;;;;;;;;;5020108;28;19921;-58
2022/03/31 07:31:56;;;;;;;;;;;;;;;;;;5011792;28;20015;-58
2022/03/31 07:34:24;;;;;;;;;;;;;;;;;;5021347;28;19917;-58
2022/03/31 07:36:53;;;;;;;;;;;;;;;;;;5019802;28;20053;-58
2022/03/31 07:39:19;;;;;;;;;;;;;;;;;;5034304;28;20344;-58
2022/03/31 07:41:46;;;;;;;;;;;;;;;;;;5021718;28;19921;-57
2022/03/31 07:44:12;;;;;;;;;;;;;;;;;;5019993;28;20022;-58
2022/03/31 07:46:38;;;;;;;;;;;;;;;;;;5020736;28;19924;-58
2022/03/31 07:49:04;;;;;;;;;;;;;;;;;;5019855;28;20022;-62
2022/03/31 07:51:29;;;;;;;;;;;;;;;;;;5020323;28;19925;-60
2022/03/31 07:53:54;;;;;;;;;;;;;;;;;;5019283;28;19917;-59
2022/03/31 07:56:23;;;;;;;;;;;;;;;;;;5022017;28;19964;-59
2022/03/31 07:58:49;;;;;;;;;;;;;;;;;;5019760;28;19916;-58
2022/03/31 08:01:14;;;;;;;;;;;;;;;;;;5020016;28;20566;-60
2022/03/31 08:03:40;;;;;;;;;;;;;;;;;;5020322;28;19932;-60
2022/03/31 08:06:08;;;;;;;;;;;;;;;;;;5019517;28;19983;-59
2022/03/31 08:08:33;;;;;;;;;;;;;;;;;;5023494;28;20348;-59
2022/03/31 08:11:01;;;;;;;;;;;;;;;;;;5019513;28;19987;-60
2022/03/31 08:13:27;;;;;;;;;;;;;;;;;;5019888;28;20075;-59
2022/03/31 08:15:58;;;;;;;;;;;;;;;;;;5007172;28;19924;-59
2022/03/31 08:18:26;;;;;;;;;;;;;;;;;;5004836;28;19955;-59
2022/03/31 08:20:53;;;;;;;;;;;;;;;;;;5018759;28;19920;-59
2022/03/31 08:23:21;;;;;;;;;;;;;;;;;;5025516;28;19921;-59
2022/03/31 08:25:51;;;;;;;;;;;;;;;;;;5015663;28;19925;-58
2022/03/31 08:28:19;;;;;;;;;;;;;;;;;;5016757;28;20007;-59
2022/03/31 08:30:44;;;;;;;;;;;;;;;;;;5020129;28;19917;-59
2022/03/31 08:33:10;;;;;;;;;;;;;;;;;;5021067;28;20072;-58
2022/03/31 08:35:38;;;;;;;;;;;;;;;;;;5017661;28;20760;-58
2022/03/31 08:38:03;;;;;;;;;;;;;;;;;;5021269;28;19921;-57
2022/03/31 08:40:29;;;;;;;;;;;;;;;;;;5019757;28;19917;-57
2022/03/31 08:42:56;;;;;;;;;;;;;;;;;;5019948;28;19917;-58
2022/03/31 08:45:22;;;;;;;;;;;;;;;;;;5022107;28;19936;-58
2022/03/31 08:47:47;;;;;;;;;;;;;;;;;;5020001;28;19921;-57
2022/03/31 08:50:13;;;;;;;;;;;;;;;;;;5018134;28;19920;-59
2022/03/31 08:52:39;;;;;;;;;;;;;;;;;;5018641;28;19917;-58
2022/03/31 08:55:04;;;;;;;;;;;;;;;;;;5021700;28;19917;-58
2022/03/31 08:57:33;;;;;;;;;;;;;;;;;;5019565;28;19917;-58
2022/03/31 08:59:58;;;;;;;;;;;;;;;;;;5003316;28;19925;-58
2022/03/31 09:02:26;;;;;;;;;;;;;;;;;;5020136;28;19955;-58
2022/03/31 09:04:52;;;;;;;;;;;;;;;;;;5006072;28;19999;-58
2022/03/31 09:07:19;;;;;;;;;;;;;;;;;;5003471;28;19999;-58
2022/03/31 09:09:45;;;;;;;;;;;;;;;;;;5022736;28;20395;-58
2022/03/31 09:12:13;;;;;;;;;;;;;;;;;;5020831;28;19920;-58
2022/03/31 09:14:38;;;;;;;;;;;;;;;;;;5020878;28;19928;-58
2022/03/31 09:17:07;;;;;;;;;;;;;;;;;;5017725;28;19955;-59
2022/03/31 09:19:35;;;;;;;;;;;;;;;;;;5016351;28;19925;-59
2022/03/31 09:22:01;;;;;;;;;;;;;;;;;;5020888;28;19924;-58
2022/03/31 09:24:27;;;;;;;;;;;;;;;;;;5019062;28;20006;-60
2022/03/31 09:26:56;;;;;;;;;;;;;;;;;;5026247;28;19921;-62
2022/03/31 09:29:24;;;;;;;;;;;;;;;;;;5016348;28;19921;-59
2022/03/31 09:31:52;;;;;;;;;;;;;;;;;;5019750;28;19941;-59
2022/03/31 09:34:17;;;;;;;;;;;;;;;;;;5019978;28;19921;-60
2022/03/31 09:36:42;;;;;;;;;;;;;;;;;;5016681;28;19948;-55
2022/03/31 09:39:09;;;;;;;;;;;;;;;;;;5018772;28;19920;-57
2022/03/31 09:41:34;;;;;;;;;;;;;;;;;;5018766;28;19921;-58
2022/03/31 09:44:04;;;;;;;;;;;;;;;;;;5018229;28;20008;-59
2022/03/31 09:46:35;;;;;;;;;;;;;;;;;;5019732;28;19921;-57
2022/03/31 09:49:08;;;;;;;;;;;;;;;;;;5018448;28;20336;-57
2022/03/31 09:51:36;;;;;;;;;;;;;;;;;;5018321;28;21954;-58
2022/03/31 09:54:01;;;;;;;;;;;;;;;;;;5024698;28;19925;-58
2022/03/31 09:56:26;;;;;;;;;;;;;;;;;;5018967;28;19940;-55
2022/03/31 09:58:54;;;;;;;;;;;;;;;;;;5020178;28;19924;-55
2022/03/31 10:01:19;;;;;;;;;;;;;;;;;;5017368;28;19928;-56
2022/03/31 10:03:45;;;;;;;;;;;;;;;;;;5027747;28;19925;-56
2022/03/31 10:06:10;;;;;;;;;;;;;;;;;;5022494;28;19928;-55
2022/03/31 10:08:42;;;;;;;;;;;;;;;;;;5019947;28;20591;-56
2022/03/31 10:11:07;;;;;;;;;;;;;;;;;;5021744;28;19921;-57
2022/03/31 10:13:34;;;;;;;;;;;;;;;;;;5024712;28;20439;-56
2022/03/31 10:15:59;;;;;;;;;;;;;;;;;;5021435;28;20024;-57
2022/03/31 10:18:25;;;;;;;;;;;;;;;;;;5019407;28;19921;-60
2022/03/31 10:20:54;;;;;;;;;;;;;;;;;;5020739;28;19921;-55
2022/03/31 10:26:08;;;;;;;;;;;;;;;;;;5020659;28;19952;-58
2022/03/31 10:28:34;;;;;;;;;;;;;;;;;;5017363;28;19952;-58
2022/03/31 10:30:59;;;;;;;;;;;;;;;;;;5035867;28;20032;-58
2022/03/31 10:33:27;;;;;;;;;;;;;;;;;;5022116;28;19917;-58
2022/03/31 10:35:53;;;;;;;;;;;;;;;;;;5020111;28;19921;-60
2022/03/31 10:38:23;;;;;;;;;;;;;;;;;;5003102;28;19917;-60
2022/03/31 10:40:49;;;;;;;;;;;;;;;;;;5004920;28;19965;-59
2022/03/31 10:43:16;;;;;;;;;;;;;;;;;;5020583;28;19921;-60
2022/03/31 10:45:45;;;;;;;;;;;;;;;;;;5019840;28;19966;-61
2022/03/31 10:48:11;;;;;;;;;;;;;;;;;;5019669;28;20894;-63
2022/03/31 10:50:36;;;;;;;;;;;;;;;;;;5006501;28;19923;-66
2022/03/31 10:53:04;;;;;;;;;;;;;;;;;;5021611;28;20003;-75
2022/03/31 10:55:29;;;;;;;;;;;;;;;;;;5017693;28;19927;-67
2022/03/31 10:57:57;;;;;;;;;;;;;;;;;;5020783;28;19917;-67
2022/03/31 11:00:25;;;;;;;;;;;;;;;;;;5017292;28;19996;-66
2022/03/31 11:02:53;;;;;;;;;;;;;;;;;;5020412;28;19985;-66
2022/03/31 11:05:21;;;;;;;;;;;;;;;;;;5021413;28;19925;-68
2022/03/31 11:07:46;;;;;;;;;;;;;;;;;;5018355;28;19924;-68
2022/03/31 11:10:12;;;;;;;;;;;;;;;;;;5018801;28;19920;-67
2022/03/31 11:12:40;;;;;;;;;;;;;;;;;;5021636;28;20721;-68
2022/03/31 11:15:06;;;;;;;;;;;;;;;;;;5019974;28;19924;-67
2022/03/31 11:17:36;;;;;;;;;;;;;;;;;;5015594;28;19917;-66
2022/03/31 11:20:03;;;;;;;;;;;;;;;;;;5007144;28;19971;-67
2022/03/31 11:22:31;;;;;;;;;;;;;;;;;;5014444;28;20281;-68
2022/03/31 11:24:58;;;;;;;;;;;;;;;;;;5007423;28;19921;-67
2022/03/31 11:27:24;;;;;;;;;;;;;;;;;;5018793;28;19928;-68
2022/03/31 11:29:49;;;;;;;;;;;;;;;;;;5018342;28;19921;-66
2022/03/31 11:32:15;;;;;;;;;;;;;;;;;;5016291;28;19920;-67
2022/03/31 11:34:42;;;;;;;;;;;;;;;;;;5015326;28;21820;-66
2022/03/31 11:37:10;;;;;;;;;;;;;;;;;;5007832;28;20797;-66
2022/03/31 11:39:35;;;;;;;;;;;;;;;;;;5018253;28;19986;-67
2022/03/31 11:42:08;;;;;;;;;;;;;;;;;;5016825;28;21822;-64
2022/03/31 13:46:49;;;;;;;;;;;;;;;;;;5017988;28;20332;-87
2022/03/31 13:49:19;;;;;;;;;;;;;;;;;;5027225;28;19924;-87
2022/03/31 13:51:50;;;;;;;;;;;;;;;;;;5032748;28;19913;-89
2022/03/31 13:54:25;;;;;;;;;;;;;;;;;;5028792;28;19914;-85
2022/03/31 13:56:57;;;;;;;;;;;;;;;;;;5048046;28;19952;-86
2022/03/31 14:02:21;;;;;;;;;;;;;;;;;;5024988;28;19944;-88
2022/03/31 14:04:55;;;;;;;;;;;;;;;;;;5037127;28;20009;-84
2022/03/31 14:07:46;;;;;;;;;;;;;;;;;;5025227;28;19924;-86
2022/03/31 14:10:13;;;;;;;;;;;;;;;;;;5008824;28;20020;-86
2022/03/31 14:12:42;;;;;;;;;;;;;;;;;;5023075;28;19995;-87
2022/03/31 14:15:14;;;;;;;;;;;;;;;;;;5026847;28;19913;-86
2022/03/31 14:17:54;;;;;;;;;;;;;;;;;;5007355;28;20032;-88
2022/03/31 14:20:36;;;;;;;;;;;;;;;;;;5022051;28;19964;-86
2022/03/31 14:23:02;;;;;;;;;;;;;;;;;;5020222;28;19917;-89
2022/03/31 14:25:37;;;;;;;;;;;;;;;;;;5005567;28;19929;-88
2022/03/31 14:28:02;;;;;;;;;;;;;;;;;;5023459;28;19913;-91
2022/03/31 14:30:38;;;;;;;;;;;;;;;;;;5037585;28;19924;-89
2022/03/31 14:36:22;;;;;;;;;;;;;;;;;;5034697;28;19917;-88
2022/03/31 14:39:06;;;;;;;;;;;;;;;;;;5039412;28;20254;-89
2022/03/31 14:41:35;;;;;;;;;;;;;;;;;;5008944;28;19924;-88
2022/03/31 14:44:08;;;;;;;;;;;;;;;;;;5010140;28;19921;-88
2022/03/31 14:46:34;;;;;;;;;;;;;;;;;;5019415;28;19933;-88
2022/03/31 14:51:48;;;;;;;;;;;;;;;;;;4999203;28;19924;-92
2022/03/31 14:54:15;;;;;;;;;;;;;;;;;;5007452;28;19921;-90
2022/03/31 14:56:58;;;;;;;;;;;;;;;;;;5004132;28;19995;-86
2022/03/31 14:59:32;;;;;;;;;;;;;;;;;;5019936;28;19909;-86
2022/03/31 15:02:01;;;;;;;;;;;;;;;;;;5020172;28;19913;-88
2022/03/31 15:04:30;;;;;;;;;;;;;;;;;;5004858;28;19945;-87
2022/03/31 15:06:56;;;;;;;;;;;;;;;;;;5008192;28;19924;-90
2022/03/31 15:15:21;;;;;;;;;;;;;;;;;;5009978;28;19921;-88
2022/03/31 15:17:46;;;;;;;;;;;;;;;;;;4995208;28;21430;-85
2022/03/31 15:20:16;;;;;;;;;;;;;;;;;;4993027;28;19917;-88
2022/03/31 15:22:45;;;;;;;;;;;;;;;;;;5006280;28;20348;-89
2022/03/31 15:25:18;;;;;;;;;;;;;;;;;;5001098;28;19929;-88
2022/03/31 15:27:46;;;;;;;;;;;;;;;;;;5004824;28;19918;-89
2022/03/31 15:30:30;;;;;;;;;;;;;;;;;;5015287;28;19931;-87
2022/03/31 15:33:04;;;;;;;;;;;;;;;;;;5006900;28;19913;-86
2022/03/31 15:35:30;;;;;;;;;;;;;;;;;;5004199;28;19922;-88
2022/03/31 15:38:06;;;;;;;;;;;;;;;;;;4990495;28;19918;-87
2022/03/31 15:40:32;;;;;;;;;;;;;;;;;;5003715;28;20000;-88
2022/03/31 15:42:57;;;;;;;;;;;;;;;;;;4986587;28;19922;-89
2022/03/31 15:45:35;;;;;;;;;;;;;;;;;;5001462;28;20029;-87
2022/03/31 15:48:19;;;;;;;;;;;;;;;;;;5041911;28;20078;-87
2022/03/31 15:51:12;;;;;;;;;;;;;;;;;;5015275;28;19956;-88
2022/03/31 15:53:41;;;;;;;;;;;;;;;;;;4983265;28;19953;-88
2022/03/31 15:56:15;;;;;;;;;;;;;;;;;;5001087;28;19922;-89
2022/03/31 15:58:44;;;;;;;;;;;;;;;;;;4966637;28;19978;-89
2022/03/31 16:01:10;;;;;;;;;;;;;;;;;;4949395;28;19914;-89
2022/03/31 16:03:42;;;;;;;;;;;;;;;;;;4971472;28;19921;-88
2022/03/31 16:06:38;;;;;;;;;;;;;;;;;;4978498;28;20213;-89
2022/03/31 16:09:24;;;;;;;;;;;;;;;;;;4977297;28;19980;-89
2022/03/31 16:11:54;;;;;;;;;;;;;;;;;;4944549;28;20000;-92
2022/03/31 16:14:36;;;;;;;;;;;;;;;;;;4978957;28;19918;-90
2022/03/31 16:17:02;;;;;;;;;;;;;;;;;;4964335;28;20009;-87
2022/03/31 16:19:30;;;;;;;;;;;;;;;;;;4953439;28;19918;-91
2022/03/31 16:22:00;;;;;;;;;;;;;;;;;;4959122;28;19929;-87
2022/03/31 16:24:29;;;;;;;;;;;;;;;;;;4977548;28;19921;-88
2022/03/31 16:26:56;;;;;;;;;;;;;;;;;;5018177;28;19936;-87
2022/03/31 16:29:27;;;;;;;;;;;;;;;;;;4992999;28;20342;-88
2022/03/31 16:31:53;;;;;;;;;;;;;;;;;;4979149;28;19917;-89
2022/03/31 16:34:18;;;;;;;;;;;;;;;;;;5002410;28;19996;-88
2022/03/31 16:36:50;;;;;;;;;;;;;;;;;;5004935;28;19936;-88
2022/03/31 16:39:35;;;;;;;;;;;;;;;;;;5022610;28;19913;-89
2022/03/31 16:42:02;;;;;;;;;;;;;;;;;;4989932;28;20113;-88
2022/03/31 16:44:41;;;;;;;;;;;;;;;;;;4994258;28;20008;-88
2022/03/31 16:47:31;;;;;;;;;;;;;;;;;;5001932;28;19991;-88
2022/03/31 16:49:57;;;;;;;;;;;;;;;;;;4983779;28;19921;-87
2022/03/31 16:52:22;;;;;;;;;;;;;;;;;;4986757;28;19914;-88
2022/03/31 16:54:58;;;;;;;;;;;;;;;;;;4999307;28;19967;-90
2022/03/31 16:57:39;;;;;;;;;;;;;;;;;;5001872;28;19921;-86
2022/03/31 17:00:05;;;;;;;;;;;;;;;;;;5018186;28;19933;-89
2022/03/31 17:02:30;;;;;;;;;;;;;;;;;;5002460;28;19940;-89
2022/03/31 17:08:04;;;;;;;;;;;;;;;;;;4993753;28;19981;-88
2022/03/31 17:10:45;;;;;;;;;;;;;;;;;;5015945;28;19953;-88
2022/03/31 17:13:25;;;;;;;;;;;;;;;;;;5031511;28;19953;-84
2022/03/31 17:15:55;;;;;;;;;;;;;;;;;;5016880;28;19933;-88
2022/03/31 17:18:30;;;;;;;;;;;;;;;;;;4986906;28;19917;-88
2022/03/31 17:20:55;;;;;;;;;;;;;;;;;;4986346;28;19902;-88
2022/03/31 17:23:31;;;;;;;;;;;;;;;;;;5003532;28;19972;-87
2022/03/31 17:25:56;;;;;;;;;;;;;;;;;;5001133;28;19917;-88
2022/03/31 17:28:31;;;;;;;;;;;;;;;;;;5018544;28;19917;-88
2022/03/31 17:31:18;;;;;;;;;;;;;;;;;;4995337;28;20000;-91
2022/03/31 17:33:50;;;;;;;;;;;;;;;;;;5017067;28;20344;-86
2022/03/31 17:36:24;;;;;;;;;;;;;;;;;;5000988;28;19941;-87
2022/03/31 17:38:52;;;;;;;;;;;;;;;;;;5008393;28;19913;-88
2022/03/31 17:41:21;;;;;;;;;;;;;;;;;;5014778;28;19913;-90
2022/03/31 17:43:48;;;;;;;;;;;;;;;;;;5004305;28;20251;-89
2022/03/31 17:46:37;;;;;;;;;;;;;;;;;;5010863;28;21934;-90
2022/03/31 17:49:07;;;;;;;;;;;;;;;;;;5024828;28;19928;-89
2022/03/31 17:51:39;;;;;;;;;;;;;;;;;;5038850;28;19917;-90
2022/03/31 17:54:05;;;;;;;;;;;;;;;;;;5023213;28;19967;-88
2022/03/31 17:56:43;;;;;;;;;;;;;;;;;;5040819;28;20246;-89
2022/03/31 17:59:51;;;;;;;;;;;;;;;;;;5046343;28;19927;-90
2022/03/31 18:02:21;;;;;;;;;;;;;;;;;;5030650;28;19913;-90
2022/03/31 18:04:53;;;;;;;;;;;;;;;;;;5010004;28;19963;-88
2022/03/31 18:07:48;;;;;;;;;;;;;;;;;;5039833;28;19958;-90
2022/03/31 18:10:25;;;;;;;;;;;;;;;;;;5034558;28;19940;-86
2022/03/31 18:12:56;;;;;;;;;;;;;;;;;;5012663;28;20211;-88
2022/03/31 18:15:30;;;;;;;;;;;;;;;;;;5022785;28;19964;-87
2022/03/31 18:18:00;;;;;;;;;;;;;;;;;;5022754;28;19917;-88
2022/03/31 18:20:35;;;;;;;;;;;;;;;;;;5037482;28;19913;-87
2022/03/31 18:23:02;;;;;;;;;;;;;;;;;;5017873;28;19943;-88
2022/03/31 18:25:36;;;;;;;;;;;;;;;;;;5022453;28;19966;-91
2022/03/31 18:28:01;;;;;;;;;;;;;;;;;;5024928;28;20012;-87
2022/03/31 18:36:18;;;;;;;;;;;;;;;;;;5043349;28;19980;-87
2022/03/31 18:38:45;;;;;;;;;;;;;;;;;;5030152;28;19924;-88
2022/03/31 18:41:19;;;;;;;;;;;;;;;;;;5045411;28;19964;-89
2022/03/31 18:43:44;;;;;;;;;;;;;;;;;;5011156;28;19913;-88
2022/03/31 18:46:20;;;;;;;;;;;;;;;;;;5048517;28;19917;-88
2022/03/31 18:55:46;;;;;;;;;;;;;;;;;;5058964;28;19924;-91
2022/03/31 19:01:58;;;;;;;;;;;;;;;;;;4990322;28;19917;-90
2022/03/31 19:07:20;;;;;;;;;;;;;;;;;;4932386;29;19919;-93
2022/03/31 19:10:29;;;;;;;;;;;;;;;;;;4944817;29;20005;-90
2022/03/31 19:13:10;;;;;;;;;;;;;;;;;;;;;
2022/03/31 19:16:28;;;;;;;;;;;;;;;;;;;;;
2022/03/31 19:19:54;;;;;;;;;;;;;;;;;;;;;
2022/03/31 19:36:10;;;;;;;;;;;;;;;;;;4922955;29;19943;-91
2022/03/31 19:42:12;;;;;;;;;;;;;;;;;;4936570;29;19926;-92
2022/03/31 19:45:08;;;;;;;;;;;;;;;;;;4947915;29;19919;-92
2022/03/31 19:51:08;;;;;;;;;;;;;;;;;;4947408;29;19921;-91
2022/03/31 20:04:01;;;;;;;;;;;;;;;;;;4897078;29;19926;-91
2022/03/31 20:07:20;;;;;;;;;;;;;;;;;;4907708;29;19952;-88
2022/03/31 20:20:38;;;;;;;;;;;;;;;;;;4799151;29;20870;-88
2022/03/31 20:30:30;;;;;;;;;;;;;;;;;;4799668;29;19925;-91
2022/03/31 20:32:51;;;;;;;;;;;;;;;;;;4817216;29;19920;-90
2022/03/31 20:35:49;;;;;;;;;;;;;;;;;;4832422;29;19920;-91